sensor_id;sensor_type;location;lat;lon;timestamp;temperature;humidity
8402;DHT22;4238;48.404;9.498;2023-09-07T04:01:07;13.70;99.90
8402;DHT22;4238;48.404;9.498;2023-09-07T04:03:34;13.60;99.90
8402;DHT22;4238;48.404;9.498;2023-09-07T04:06:01;13.60;99.90
8402;DHT22;4238;48.404;9.498;2023-09-07T04:08:28;13.70;99.90
8402;DHT22;4238;48.404;9.498;2023-09-07T04:10:54;13.70;99.90
8402;DHT22;4238;48.404;9.498;2023-09-07T04:13:21;13.70;99.90
8402;DHT22;4238;48.404;9.498;2023-09-07T04:15:48;13.80;99.90
8402;DHT22;4238;48.404;9.498;2023-09-07T04:18:16;13.80;99.90
8402;DHT22;4238;48.404;9.498;2023-09-07T04:20:43;13.90;99.90
8402;DHT22;4238;48.404;9.498;2023-09-07T04:23:10;14.00;99.90
8402;DHT22;4238;48.404;9.498;2023-09-07T04:25:37;14.10;99.90
8402;DHT22;4238;48.404;9.498;2023-09-07T04:28:05;14.20;99.90
8402;DHT22;4238;48.404;9.498;2023-09-07T04:30:32;14.30;99.90
8402;DHT22;4238;48.404;9.498;2023-09-07T04:32:58;14.30;99.90
8402;DHT22;4238;48.404;9.498;2023-09-07T04:35:28;14.30;99.90
8402;DHT22;4238;48.404;9.498;2023-09-07T04:37:56;14.30;99.90
8402;DHT22;4238;48.404;9.498;2023-09-07T04:40:24;14.40;99.90
8402;DHT22;4238;48.404;9.498;2023-09-07T04:42:51;14.20;99.90
8402;DHT22;4238;48.404;9.498;2023-09-07T04:45:17;14.20;99.90
8402;DHT22;4238;48.404;9.498;2023-09-07T04:47:44;14.10;99.90
8402;DHT22;4238;48.404;9.498;2023-09-07T04:50:11;14.00;99.90
8402;DHT22;4238;48.404;9.498;2023-09-07T04:52:40;14.10;99.90
8402;DHT22;4238;48.404;9.498;2023-09-07T04:55:07;14.10;99.90
8402;DHT22;4238;48.404;9.498;2023-09-07T04:57:36;14.30;99.90
8402;DHT22;4238;48.404;9.498;2023-09-07T05:00:04;14.40;99.90
8402;DHT22;4238;48.404;9.498;2023-09-07T05:02:31;14.20;99.90
8402;DHT22;4238;48.404;9.498;2023-09-07T05:04:58;14.20;99.90
8402;DHT22;4238;48.404;9.498;2023-09-07T05:07:25;14.30;99.90
8402;DHT22;4238;48.404;9.498;2023-09-07T05:09:53;14.30;99.90
8402;DHT22;4238;48.404;9.498;2023-09-07T05:12:20;14.20;99.90
8402;DHT22;4238;48.404;9.498;2023-09-07T05:14:47;14.10;99.90
8402;DHT22;4238;48.404;9.498;2023-09-07T05:17:14;14.00;99.90
8402;DHT22;4238;48.404;9.498;2023-09-07T05:19:41;13.90;99.90
8402;DHT22;4238;48.404;9.498;2023-09-07T05:22:07;13.90;99.90
8402;DHT22;4238;48.404;9.498;2023-09-07T05:24:34;13.90;99.90
8402;DHT22;4238;48.404;9.498;2023-09-07T05:27:05;13.90;99.90
8402;DHT22;4238;48.404;9.498;2023-09-07T05:29:32;14.00;99.90
8402;DHT22;4238;48.404;9.498;2023-09-07T05:31:59;14.20;99.90
8402;DHT22;4238;48.404;9.498;2023-09-07T05:34:25;14.30;99.90
8402;DHT22;4238;48.404;9.498;2023-09-07T05:36:52;14.40;99.90
8402;DHT22;4238;48.404;9.498;2023-09-07T05:39:19;14.50;99.90
8402;DHT22;4238;48.404;9.498;2023-09-07T05:41:46;14.60;99.90
8402;DHT22;4238;48.404;9.498;2023-09-07T05:44:17;14.70;99.90
8402;DHT22;4238;48.404;9.498;2023-09-07T05:46:43;14.90;99.90
8402;DHT22;4238;48.404;9.498;2023-09-07T05:49:10;15.30;99.90
8402;DHT22;4238;48.404;9.498;2023-09-07T05:51:37;15.40;97.80
8402;DHT22;4238;48.404;9.498;2023-09-07T05:54:04;15.50;95.00
8402;DHT22;4238;48.404;9.498;2023-09-07T05:56:31;15.60;93.90
8402;DHT22;4238;48.404;9.498;2023-09-07T05:58:59;15.60;94.00
8402;DHT22;4238;48.404;9.498;2023-09-07T06:01:27;15.70;94.30
8402;DHT22;4238;48.404;9.498;2023-09-07T06:03:54;15.80;90.60
8402;DHT22;4238;48.404;9.498;2023-09-07T06:06:21;15.80;90.80
8402;DHT22;4238;48.404;9.498;2023-09-07T06:08:47;15.90;90.00
8402;DHT22;4238;48.404;9.498;2023-09-07T06:11:14;15.90;90.20
8402;DHT22;4238;48.404;9.498;2023-09-07T06:13:41;15.80;91.50
8402;DHT22;4238;48.404;9.498;2023-09-07T06:16:08;15.80;90.90
8402;DHT22;4238;48.404;9.498;2023-09-07T06:18:36;15.70;94.70
8402;DHT22;4238;48.404;9.498;2023-09-07T06:21:04;15.80;93.80
8402;DHT22;4238;48.404;9.498;2023-09-07T06:23:31;15.90;94.30
8402;DHT22;4238;48.404;9.498;2023-09-07T06:25:58;16.10;92.20
8402;DHT22;4238;48.404;9.498;2023-09-07T06:28:25;16.30;88.60
8402;DHT22;4238;48.404;9.498;2023-09-07T06:30:51;16.60;68.70
8402;DHT22;4238;48.404;9.498;2023-09-07T06:33:18;16.70;66.90
8402;DHT22;4238;48.404;9.498;2023-09-07T06:35:46;16.90;68.50
8402;DHT22;4238;48.404;9.498;2023-09-07T06:38:13;17.00;58.20
8402;DHT22;4238;48.404;9.498;2023-09-07T06:40:40;17.20;51.60
8402;DHT22;4238;48.404;9.498;2023-09-07T06:43:07;17.40;51.80
8402;DHT22;4238;48.404;9.498;2023-09-07T06:45:34;17.50;44.20
8402;DHT22;4238;48.404;9.498;2023-09-07T06:48:01;17.80;35.20
8402;DHT22;4238;48.404;9.498;2023-09-07T06:50:28;17.80;31.50
8402;DHT22;4238;48.404;9.498;2023-09-07T06:52:56;17.90;34.00
8402;DHT22;4238;48.404;9.498;2023-09-07T06:55:23;18.10;26.60
8402;DHT22;4238;48.404;9.498;2023-09-07T06:57:50;18.40;13.10
8402;DHT22;4238;48.404;9.498;2023-09-07T07:00:17;18.50;7.70
8402;DHT22;4238;48.404;9.498;2023-09-07T07:02:44;18.60;5.40
8402;DHT22;4238;48.404;9.498;2023-09-07T07:05:11;18.90;1.00
8402;DHT22;4238;48.404;9.498;2023-09-07T07:07:38;19.00;1.00
8402;DHT22;4238;48.404;9.498;2023-09-07T07:10:07;19.10;1.00
8402;DHT22;4238;48.404;9.498;2023-09-07T07:12:35;19.30;1.00
8402;DHT22;4238;48.404;9.498;2023-09-07T07:15:04;19.50;1.00
8402;DHT22;4238;48.404;9.498;2023-09-07T07:17:32;19.70;1.00
8402;DHT22;4238;48.404;9.498;2023-09-07T07:19:59;19.80;1.00
8402;DHT22;4238;48.404;9.498;2023-09-07T07:22:26;19.90;1.00
8402;DHT22;4238;48.404;9.498;2023-09-07T07:24:53;20.00;1.00
8402;DHT22;4238;48.404;9.498;2023-09-07T07:27:21;20.10;1.00
8402;DHT22;4238;48.404;9.498;2023-09-07T07:29:48;20.30;1.00
8402;DHT22;4238;48.404;9.498;2023-09-07T07:32:15;20.50;1.00
8402;DHT22;4238;48.404;9.498;2023-09-07T07:34:42;20.60;1.00
8402;DHT22;4238;48.404;9.498;2023-09-07T07:37:08;20.70;1.00
8402;DHT22;4238;48.404;9.498;2023-09-07T07:39:35;20.90;1.00
8402;DHT22;4238;48.404;9.498;2023-09-07T07:42:03;21.00;1.00
8402;DHT22;4238;48.404;9.498;2023-09-07T07:44:32;21.00;1.00
8402;DHT22;4238;48.404;9.498;2023-09-07T07:46:59;21.30;1.00
8402;DHT22;4238;48.404;9.498;2023-09-07T07:49:26;21.50;1.00
8402;DHT22;4238;48.404;9.498;2023-09-07T07:51:53;21.80;1.00
8402;DHT22;4238;48.404;9.498;2023-09-07T07:54:21;21.90;99.90
8402;DHT22;4238;48.404;9.498;2023-09-07T07:56:48;21.90;99.90
8402;DHT22;4238;48.404;9.498;2023-09-07T07:59:15;21.90;99.90
8402;DHT22;4238;48.404;9.498;2023-09-07T08:01:43;22.10;99.90
8402;DHT22;4238;48.404;9.498;2023-09-07T08:04:10;22.30;97.50
8402;DHT22;4238;48.404;9.498;2023-09-07T08:06:37;22.50;99.90
8402;DHT22;4238;48.404;9.498;2023-09-07T08:09:04;22.70;1.00
8402;DHT22;4238;48.404;9.498;2023-09-07T08:11:31;22.70;1.00
8402;DHT22;4238;48.404;9.498;2023-09-07T08:13:58;22.80;1.00
8402;DHT22;4238;48.404;9.498;2023-09-07T08:16:25;22.90;99.90
8402;DHT22;4238;48.404;9.498;2023-09-07T08:18:53;22.80;99.90
8402;DHT22;4238;48.404;9.498;2023-09-07T08:21:20;23.20;99.90
8402;DHT22;4238;48.404;9.498;2023-09-07T08:23:46;23.40;1.00
8402;DHT22;4238;48.404;9.498;2023-09-07T08:26:13;23.50;99.90
8402;DHT22;4238;48.404;9.498;2023-09-07T08:28:41;23.50;1.00
8402;DHT22;4238;48.404;9.498;2023-09-07T08:31:12;23.60;1.00
8402;DHT22;4238;48.404;9.498;2023-09-07T08:33:40;23.70;99.90
8402;DHT22;4238;48.404;9.498;2023-09-07T08:36:08;23.60;1.00
8402;DHT22;4238;48.404;9.498;2023-09-07T08:38:35;23.90;1.00
8402;DHT22;4238;48.404;9.498;2023-09-07T08:41:02;24.10;99.90
8402;DHT22;4238;48.404;9.498;2023-09-07T08:43:33;24.20;94.40
8402;DHT22;4238;48.404;9.498;2023-09-07T08:46:14;24.00;99.90
8402;DHT22;4238;48.404;9.498;2023-09-07T08:48:42;24.20;83.60
8402;DHT22;4238;48.404;9.498;2023-09-07T08:51:12;24.50;1.00
8402;DHT22;4238;48.404;9.498;2023-09-07T08:53:40;24.70;99.90
8402;DHT22;4238;48.404;9.498;2023-09-07T08:56:11;24.60;99.90
8402;DHT22;4238;48.404;9.498;2023-09-07T08:58:38;24.80;1.00
8402;DHT22;4238;48.404;9.498;2023-09-07T09:01:06;24.90;57.70
8402;DHT22;4238;48.404;9.498;2023-09-07T09:03:34;25.10;1.00
8402;DHT22;4238;48.404;9.498;2023-09-07T09:06:01;25.20;99.90
8402;DHT22;4238;48.404;9.498;2023-09-07T09:08:29;25.30;99.90
8402;DHT22;4238;48.404;9.498;2023-09-07T09:11:01;25.40;1.00
8402;DHT22;4238;48.404;9.498;2023-09-07T09:13:29;25.40;4.00
8402;DHT22;4238;48.404;9.498;2023-09-07T09:15:59;25.30;1.00
8402;DHT22;4238;48.404;9.498;2023-09-07T09:18:26;25.40;1.00
8402;DHT22;4238;48.404;9.498;2023-09-07T09:20:54;25.80;99.90
8402;DHT22;4238;48.404;9.498;2023-09-07T09:23:21;26.00;99.90
8402;DHT22;4238;48.404;9.498;2023-09-07T09:25:49;26.00;53.90
8402;DHT22;4238;48.404;9.498;2023-09-07T09:28:16;26.20;51.30
8402;DHT22;4238;48.404;9.498;2023-09-07T09:30:43;26.40;1.00
8402;DHT22;4238;48.404;9.498;2023-09-07T09:33:11;26.60;1.00
8402;DHT22;4238;48.404;9.498;2023-09-07T09:35:37;26.70;99.90
8402;DHT22;4238;48.404;9.498;2023-09-07T09:38:04;26.70;99.90
8402;DHT22;4238;48.404;9.498;2023-09-07T09:40:31;27.00;99.90
8402;DHT22;4238;48.404;9.498;2023-09-07T09:43:02;27.10;99.90
8402;DHT22;4238;48.404;9.498;2023-09-07T09:45:29;26.90;99.90
8402;DHT22;4238;48.404;9.498;2023-09-07T09:47:56;26.90;84.80
8402;DHT22;4238;48.404;9.498;2023-09-07T09:50:26;27.20;21.80
8402;DHT22;4238;48.404;9.498;2023-09-07T09:52:53;27.30;1.00
8402;DHT22;4238;48.404;9.498;2023-09-07T09:55:20;27.20;1.00
8402;DHT22;4238;48.404;9.498;2023-09-07T09:57:48;27.20;1.00
8402;DHT22;4238;48.404;9.498;2023-09-07T10:00:17;27.40;1.00
8402;DHT22;4238;48.404;9.498;2023-09-07T10:02:58;27.60;1.00
8402;DHT22;4238;48.404;9.498;2023-09-07T10:05:26;27.70;1.00
8402;DHT22;4238;48.404;9.498;2023-09-07T10:07:59;27.80;1.00
8402;DHT22;4238;48.404;9.498;2023-09-07T10:10:33;28.20;1.00
8402;DHT22;4238;48.404;9.498;2023-09-07T10:13:00;28.20;1.00
8402;DHT22;4238;48.404;9.498;2023-09-07T10:15:28;28.40;99.90
8402;DHT22;4238;48.404;9.498;2023-09-07T10:18:15;28.60;99.90
8402;DHT22;4238;48.404;9.498;2023-09-07T10:20:50;28.20;99.90
8402;DHT22;4238;48.404;9.498;2023-09-07T10:23:17;28.30;99.90
8402;DHT22;4238;48.404;9.498;2023-09-07T10:25:48;28.00;99.90
8402;DHT22;4238;48.404;9.498;2023-09-07T10:28:22;28.20;99.90
8402;DHT22;4238;48.404;9.498;2023-09-07T10:31:04;28.50;99.90
8402;DHT22;4238;48.404;9.498;2023-09-07T10:33:32;28.50;99.90
8402;DHT22;4238;48.404;9.498;2023-09-07T10:35:59;28.80;99.90
8402;DHT22;4238;48.404;9.498;2023-09-07T10:38:27;28.90;99.90
8402;DHT22;4238;48.404;9.498;2023-09-07T10:40:58;29.00;99.90
8402;DHT22;4238;48.404;9.498;2023-09-07T10:43:25;28.80;99.90
8402;DHT22;4238;48.404;9.498;2023-09-07T10:45:53;28.90;99.90
8402;DHT22;4238;48.404;9.498;2023-09-07T10:48:22;28.70;99.90
8402;DHT22;4238;48.404;9.498;2023-09-07T10:50:49;28.90;99.90
8402;DHT22;4238;48.404;9.498;2023-09-07T10:53:25;29.20;99.90
8402;DHT22;4238;48.404;9.498;2023-09-07T10:55:53;29.00;99.90
8402;DHT22;4238;48.404;9.498;2023-09-07T10:58:25;29.10;99.90
8402;DHT22;4238;48.404;9.498;2023-09-07T11:00:52;29.20;99.90
8402;DHT22;4238;48.404;9.498;2023-09-07T11:03:22;29.30;99.90
8402;DHT22;4238;48.404;9.498;2023-09-07T11:05:50;29.50;99.90
8402;DHT22;4238;48.404;9.498;2023-09-07T11:08:18;29.30;99.90
8402;DHT22;4238;48.404;9.498;2023-09-07T11:10:45;29.40;99.90
8402;DHT22;4238;48.404;9.498;2023-09-07T11:13:11;29.20;99.90
8402;DHT22;4238;48.404;9.498;2023-09-07T11:15:38;29.50;99.90
8402;DHT22;4238;48.404;9.498;2023-09-07T11:18:06;29.40;99.90
8402;DHT22;4238;48.404;9.498;2023-09-07T11:20:35;29.30;99.90
8402;DHT22;4238;48.404;9.498;2023-09-07T11:23:02;29.10;99.90
8402;DHT22;4238;48.404;9.498;2023-09-07T11:25:34;29.40;99.90
8402;DHT22;4238;48.404;9.498;2023-09-07T11:28:02;29.50;99.90
8402;DHT22;4238;48.404;9.498;2023-09-07T11:30:30;29.80;99.90
8402;DHT22;4238;48.404;9.498;2023-09-07T11:33:05;29.70;99.90
8402;DHT22;4238;48.404;9.498;2023-09-07T11:35:33;29.50;99.90
8402;DHT22;4238;48.404;9.498;2023-09-07T11:38:02;29.20;99.90
8402;DHT22;4238;48.404;9.498;2023-09-07T11:40:32;29.20;99.90
8402;DHT22;4238;48.404;9.498;2023-09-07T11:42:58;29.50;99.90
8402;DHT22;4238;48.404;9.498;2023-09-07T11:45:25;29.10;99.90
8402;DHT22;4238;48.404;9.498;2023-09-07T11:47:53;29.30;99.90
8402;DHT22;4238;48.404;9.498;2023-09-07T11:50:23;29.40;93.80
8402;DHT22;4238;48.404;9.498;2023-09-07T11:52:52;29.20;99.90
8402;DHT22;4238;48.404;9.498;2023-09-07T11:55:18;29.10;99.90
8402;DHT22;4238;48.404;9.498;2023-09-07T11:57:45;28.90;99.90
8402;DHT22;4238;48.404;9.498;2023-09-07T12:00:12;29.20;82.90
8402;DHT22;4238;48.404;9.498;2023-09-07T12:02:40;29.40;82.10
8402;DHT22;4238;48.404;9.498;2023-09-07T12:05:07;29.70;58.30
8402;DHT22;4238;48.404;9.498;2023-09-07T12:07:34;29.50;93.40
8402;DHT22;4238;48.404;9.498;2023-09-07T12:10:03;29.60;78.80
8402;DHT22;4238;48.404;9.498;2023-09-07T12:12:30;29.70;10.80
8402;DHT22;4238;48.404;9.498;2023-09-07T12:14:57;29.70;92.00
8402;DHT22;4238;48.404;9.498;2023-09-07T12:17:25;29.80;99.90
8402;DHT22;4238;48.404;9.498;2023-09-07T12:19:52;29.90;34.60
8402;DHT22;4238;48.404;9.498;2023-09-07T12:22:18;29.80;13.10
8402;DHT22;4238;48.404;9.498;2023-09-07T12:24:45;29.70;3.60
8402;DHT22;4238;48.404;9.498;2023-09-07T12:27:13;29.70;14.80
8402;DHT22;4238;48.404;9.498;2023-09-07T12:29:40;29.60;27.20
8402;DHT22;4238;48.404;9.498;2023-09-07T12:32:07;29.60;38.50
8402;DHT22;4238;48.404;9.498;2023-09-07T12:34:34;29.80;12.00
8402;DHT22;4238;48.404;9.498;2023-09-07T12:37:01;29.40;42.70
8402;DHT22;4238;48.404;9.498;2023-09-07T12:39:29;29.50;45.70
8402;DHT22;4238;48.404;9.498;2023-09-07T12:41:56;29.50;40.20
8402;DHT22;4238;48.404;9.498;2023-09-07T12:44:24;29.60;69.20
8402;DHT22;4238;48.404;9.498;2023-09-07T12:46:51;29.50;32.70
8402;DHT22;4238;48.404;9.498;2023-09-07T12:49:17;29.60;1.00
8402;DHT22;4238;48.404;9.498;2023-09-07T12:51:45;29.40;24.00
8402;DHT22;4238;48.404;9.498;2023-09-07T12:54:12;29.20;12.00
8402;DHT22;4238;48.404;9.498;2023-09-07T12:56:39;29.20;41.40
8402;DHT22;4238;48.404;9.498;2023-09-07T12:59:05;29.00;11.10
8402;DHT22;4238;48.404;9.498;2023-09-07T13:01:34;29.30;16.40
8402;DHT22;4238;48.404;9.498;2023-09-07T13:04:01;29.50;6.80
8402;DHT22;4238;48.404;9.498;2023-09-07T13:06:28;29.60;1.00
8402;DHT22;4238;48.404;9.498;2023-09-07T13:08:55;29.80;1.00
8402;DHT22;4238;48.404;9.498;2023-09-07T13:11:22;29.40;5.10
8402;DHT22;4238;48.404;9.498;2023-09-07T13:13:48;29.20;3.50
8402;DHT22;4238;48.404;9.498;2023-09-07T13:16:15;29.30;11.30
8402;DHT22;4238;48.404;9.498;2023-09-07T13:18:43;29.40;1.00
8402;DHT22;4238;48.404;9.498;2023-09-07T13:21:10;29.30;1.00
8402;DHT22;4238;48.404;9.498;2023-09-07T13:23:40;29.30;1.00
8402;DHT22;4238;48.404;9.498;2023-09-07T13:26:07;29.30;1.00
8402;DHT22;4238;48.404;9.498;2023-09-07T13:28:34;28.90;1.00
8402;DHT22;4238;48.404;9.498;2023-09-07T13:31:01;28.90;1.00
8402;DHT22;4238;48.404;9.498;2023-09-07T13:33:28;28.70;1.00
8402;DHT22;4238;48.404;9.498;2023-09-07T13:35:56;28.90;1.00
8402;DHT22;4238;48.404;9.498;2023-09-07T13:38:23;29.10;78.70
8402;DHT22;4238;48.404;9.498;2023-09-07T13:40:50;28.80;10.30
8402;DHT22;4238;48.404;9.498;2023-09-07T13:43:17;29.00;1.00
8402;DHT22;4238;48.404;9.498;2023-09-07T13:45:44;28.90;1.00
8402;DHT22;4238;48.404;9.498;2023-09-07T13:48:11;28.50;18.60
8402;DHT22;4238;48.404;9.498;2023-09-07T13:50:39;28.60;1.00
8402;DHT22;4238;48.404;9.498;2023-09-07T13:53:07;28.60;1.00
8402;DHT22;4238;48.404;9.498;2023-09-07T13:55:34;28.80;7.90
8402;DHT22;4238;48.404;9.498;2023-09-07T13:58:00;28.70;18.90
8402;DHT22;4238;48.404;9.498;2023-09-07T14:00:27;28.50;51.60
8402;DHT22;4238;48.404;9.498;2023-09-07T14:02:54;28.60;82.20
8402;DHT22;4238;48.404;9.498;2023-09-07T14:05:21;28.90;12.20
8402;DHT22;4238;48.404;9.498;2023-09-07T14:07:48;28.90;31.60
8402;DHT22;4238;48.404;9.498;2023-09-07T14:10:16;28.80;5.80
8402;DHT22;4238;48.404;9.498;2023-09-07T14:12:43;28.70;27.90
8402;DHT22;4238;48.404;9.498;2023-09-07T14:15:12;28.50;94.20
8402;DHT22;4238;48.404;9.498;2023-09-07T14:17:39;28.60;41.10
8402;DHT22;4238;48.404;9.498;2023-09-07T14:20:07;28.60;41.90
8402;DHT22;4238;48.404;9.498;2023-09-07T14:22:34;28.60;41.40
8402;DHT22;4238;48.404;9.498;2023-09-07T14:25:01;28.50;99.80
8402;DHT22;4238;48.404;9.498;2023-09-07T14:27:29;28.40;75.90
8402;DHT22;4238;48.404;9.498;2023-09-07T14:29:56;28.30;95.10
8402;DHT22;4238;48.404;9.498;2023-09-07T14:32:23;28.30;99.90
8402;DHT22;4238;48.404;9.498;2023-09-07T14:34:50;28.20;96.30
8402;DHT22;4238;48.404;9.498;2023-09-07T14:37:17;28.10;95.30
8402;DHT22;4238;48.404;9.498;2023-09-07T14:39:44;28.10;62.90
8402;DHT22;4238;48.404;9.498;2023-09-07T14:42:13;28.00;94.90
8402;DHT22;4238;48.404;9.498;2023-09-07T14:44:44;28.00;57.80
8402;DHT22;4238;48.404;9.498;2023-09-07T14:47:12;28.00;54.40
8402;DHT22;4238;48.404;9.498;2023-09-07T14:49:39;27.90;99.90
8402;DHT22;4238;48.404;9.498;2023-09-07T14:52:06;28.00;99.90
8402;DHT22;4238;48.404;9.498;2023-09-07T14:54:33;27.90;99.90
8402;DHT22;4238;48.404;9.498;2023-09-07T14:57:00;27.90;99.90
8402;DHT22;4238;48.404;9.498;2023-09-07T14:59:28;27.80;99.90
8402;DHT22;4238;48.404;9.498;2023-09-07T15:01:57;27.80;99.90
8402;DHT22;4238;48.404;9.498;2023-09-07T15:04:24;27.60;94.70
8402;DHT22;4238;48.404;9.498;2023-09-07T15:06:51;27.10;99.90
8402;DHT22;4238;48.404;9.498;2023-09-07T15:09:18;27.00;99.90
8402;DHT22;4238;48.404;9.498;2023-09-07T15:11:45;27.00;99.90
8402;DHT22;4238;48.404;9.498;2023-09-07T15:14:12;27.10;99.90
8402;DHT22;4238;48.404;9.498;2023-09-07T15:16:39;27.00;99.90
8402;DHT22;4238;48.404;9.498;2023-09-07T15:19:07;26.90;99.90
8402;DHT22;4238;48.404;9.498;2023-09-07T15:21:35;26.70;99.90
8402;DHT22;4238;48.404;9.498;2023-09-07T15:24:02;26.60;99.90
8402;DHT22;4238;48.404;9.498;2023-09-07T15:26:40;26.70;99.90
8402;DHT22;4238;48.404;9.498;2023-09-07T15:29:07;26.60;99.90
8402;DHT22;4238;48.404;9.498;2023-09-07T15:31:33;26.60;99.90
8402;DHT22;4238;48.404;9.498;2023-09-07T15:34:00;26.50;99.90
8402;DHT22;4238;48.404;9.498;2023-09-07T15:36:30;26.30;99.90
8402;DHT22;4238;48.404;9.498;2023-09-07T15:38:57;26.30;99.90
8402;DHT22;4238;48.404;9.498;2023-09-07T15:41:23;26.30;99.90
8402;DHT22;4238;48.404;9.498;2023-09-07T15:43:51;26.30;99.90
8402;DHT22;4238;48.404;9.498;2023-09-07T15:46:18;26.20;99.90
8402;DHT22;4238;48.404;9.498;2023-09-07T15:48:46;26.30;99.90
8402;DHT22;4238;48.404;9.498;2023-09-07T15:51:13;26.20;99.90
8402;DHT22;4238;48.404;9.498;2023-09-07T15:53:41;26.20;99.90
8402;DHT22;4238;48.404;9.498;2023-09-07T15:56:08;26.10;1.00
8402;DHT22;4238;48.404;9.498;2023-09-07T15:58:35;26.00;1.00
8402;DHT22;4238;48.404;9.498;2023-09-07T16:01:02;25.90;1.00
8402;DHT22;4238;48.404;9.498;2023-09-07T16:03:29;25.80;1.00
8402;DHT22;4238;48.404;9.498;2023-09-07T16:05:57;25.80;1.00
8402;DHT22;4238;48.404;9.498;2023-09-07T16:08:24;25.70;1.00
8402;DHT22;4238;48.404;9.498;2023-09-07T16:10:55;25.70;1.00
8402;DHT22;4238;48.404;9.498;2023-09-07T16:13:22;25.70;1.00
8402;DHT22;4238;48.404;9.498;2023-09-07T16:15:49;25.40;89.50
8402;DHT22;4238;48.404;9.498;2023-09-07T16:18:16;25.50;99.90
8402;DHT22;4238;48.404;9.498;2023-09-07T16:20:44;25.40;99.90
8402;DHT22;4238;48.404;9.498;2023-09-07T16:23:10;25.40;99.90
8402;DHT22;4238;48.404;9.498;2023-09-07T16:25:37;25.40;99.90
8402;DHT22;4238;48.404;9.498;2023-09-07T16:28:06;25.20;99.90
8402;DHT22;4238;48.404;9.498;2023-09-07T16:30:33;25.20;99.90
8402;DHT22;4238;48.404;9.498;2023-09-07T16:32:59;25.10;1.00
8402;DHT22;4238;48.404;9.498;2023-09-07T16:35:26;25.00;1.00
8402;DHT22;4238;48.404;9.498;2023-09-07T16:37:53;24.90;1.00
8402;DHT22;4238;48.404;9.498;2023-09-07T16:40:20;24.90;1.00
8402;DHT22;4238;48.404;9.498;2023-09-07T16:42:47;24.80;1.00
8402;DHT22;4238;48.404;9.498;2023-09-07T16:45:15;24.80;1.00
8402;DHT22;4238;48.404;9.498;2023-09-07T16:47:44;24.60;1.00
8402;DHT22;4238;48.404;9.498;2023-09-07T16:50:11;24.50;22.40
8402;DHT22;4238;48.404;9.498;2023-09-07T16:52:38;24.50;52.60
8402;DHT22;4238;48.404;9.498;2023-09-07T16:55:05;24.30;52.20
8402;DHT22;4238;48.404;9.498;2023-09-07T16:57:33;24.30;99.90
8402;DHT22;4238;48.404;9.498;2023-09-07T17:00:00;24.30;99.90
8402;DHT22;4238;48.404;9.498;2023-09-07T17:02:30;24.10;1.00
8402;DHT22;4238;48.404;9.498;2023-09-07T17:04:57;24.00;1.00
8402;DHT22;4238;48.404;9.498;2023-09-07T17:07:24;23.80;99.90
8402;DHT22;4238;48.404;9.498;2023-09-07T17:09:52;23.60;1.00
8402;DHT22;4238;48.404;9.498;2023-09-07T17:12:18;23.40;1.00
8402;DHT22;4238;48.404;9.498;2023-09-07T17:14:45;23.20;99.90
8402;DHT22;4238;48.404;9.498;2023-09-07T17:17:12;23.10;99.90
8402;DHT22;4238;48.404;9.498;2023-09-07T17:19:40;23.00;41.20
8402;DHT22;4238;48.404;9.498;2023-09-07T17:22:07;23.10;1.00
8402;DHT22;4238;48.404;9.498;2023-09-07T17:24:34;23.00;1.00
8402;DHT22;4238;48.404;9.498;2023-09-07T17:27:01;23.00;99.90
8402;DHT22;4238;48.404;9.498;2023-09-07T17:29:29;22.80;1.00
8402;DHT22;4238;48.404;9.498;2023-09-07T17:31:56;22.60;99.90
8402;DHT22;4238;48.404;9.498;2023-09-07T17:34:23;22.20;1.00
8402;DHT22;4238;48.404;9.498;2023-09-07T17:36:51;22.00;99.90
8402;DHT22;4238;48.404;9.498;2023-09-07T17:39:18;21.90;1.00
8402;DHT22;4238;48.404;9.498;2023-09-07T17:41:45;21.80;1.00
8402;DHT22;4238;48.404;9.498;2023-09-07T17:44:12;21.50;1.00
8402;DHT22;4238;48.404;9.498;2023-09-07T17:46:39;21.30;1.00
8402;DHT22;4238;48.404;9.498;2023-09-07T17:49:06;21.00;1.00
8402;DHT22;4238;48.404;9.498;2023-09-07T17:51:32;20.80;1.00
8402;DHT22;4238;48.404;9.498;2023-09-07T17:54:01;20.70;1.00
8402;DHT22;4238;48.404;9.498;2023-09-07T17:56:27;20.40;1.00
8402;DHT22;4238;48.404;9.498;2023-09-07T17:58:54;20.20;1.00
8402;DHT22;4238;48.404;9.498;2023-09-07T18:01:21;20.10;1.00
8402;DHT22;4238;48.404;9.498;2023-09-07T18:03:48;20.00;1.00
8402;DHT22;4238;48.404;9.498;2023-09-07T18:06:15;19.80;1.00
8402;DHT22;4238;48.404;9.498;2023-09-07T18:08:42;19.80;1.00
8402;DHT22;4238;48.404;9.498;2023-09-07T18:11:10;19.70;1.00
8402;DHT22;4238;48.404;9.498;2023-09-07T18:13:37;19.60;1.00
8402;DHT22;4238;48.404;9.498;2023-09-07T18:16:04;19.50;1.00
8402;DHT22;4238;48.404;9.498;2023-09-07T18:18:31;19.40;1.00
8402;DHT22;4238;48.404;9.498;2023-09-07T18:21:03;19.20;1.00
8402;DHT22;4238;48.404;9.498;2023-09-07T18:23:30;19.10;1.00
8402;DHT22;4238;48.404;9.498;2023-09-07T18:25:57;19.00;1.00
8402;DHT22;4238;48.404;9.498;2023-09-07T18:28:25;18.80;1.00
8402;DHT22;4238;48.404;9.498;2023-09-07T18:30:52;18.70;1.00
8402;DHT22;4238;48.404;9.498;2023-09-07T18:33:19;18.70;1.00
8402;DHT22;4238;48.404;9.498;2023-09-07T18:35:47;18.70;1.00
8402;DHT22;4238;48.404;9.498;2023-09-07T18:38:24;18.60;1.00
8402;DHT22;4238;48.404;9.498;2023-09-07T18:40:51;18.60;1.00
8402;DHT22;4238;48.404;9.498;2023-09-07T18:43:18;18.70;1.00
8402;DHT22;4238;48.404;9.498;2023-09-07T18:45:46;18.70;1.00
8402;DHT22;4238;48.404;9.498;2023-09-07T18:48:13;18.60;1.00
8402;DHT22;4238;48.404;9.498;2023-09-07T18:50:39;18.60;1.00
8402;DHT22;4238;48.404;9.498;2023-09-07T18:53:06;18.50;1.00
8402;DHT22;4238;48.404;9.498;2023-09-07T18:55:33;18.50;1.00
8402;DHT22;4238;48.404;9.498;2023-09-07T18:58:00;18.40;1.00
8402;DHT22;4238;48.404;9.498;2023-09-07T19:00:28;18.30;1.00
8402;DHT22;4238;48.404;9.498;2023-09-07T19:02:57;18.30;1.00
8402;DHT22;4238;48.404;9.498;2023-09-07T19:05:24;18.20;1.00
8402;DHT22;4238;48.404;9.498;2023-09-07T19:07:50;18.20;1.00
8402;DHT22;4238;48.404;9.498;2023-09-07T19:10:18;18.10;1.00
8402;DHT22;4238;48.404;9.498;2023-09-07T19:12:44;18.10;1.00
8402;DHT22;4238;48.404;9.498;2023-09-07T19:15:12;18.10;1.00
8402;DHT22;4238;48.404;9.498;2023-09-07T19:17:39;18.10;1.00
8402;DHT22;4238;48.404;9.498;2023-09-07T19:20:09;18.10;1.00
8402;DHT22;4238;48.404;9.498;2023-09-07T19:22:36;18.00;1.00
8402;DHT22;4238;48.404;9.498;2023-09-07T19:25:04;18.20;1.00
8402;DHT22;4238;48.404;9.498;2023-09-07T19:27:30;18.40;1.00
8402;DHT22;4238;48.404;9.498;2023-09-07T19:29:57;18.30;1.00
8402;DHT22;4238;48.404;9.498;2023-09-07T19:32:25;18.20;1.00
8402;DHT22;4238;48.404;9.498;2023-09-07T19:34:52;18.20;1.00
8402;DHT22;4238;48.404;9.498;2023-09-07T19:37:21;18.30;1.00
8402;DHT22;4238;48.404;9.498;2023-09-07T19:39:48;18.10;1.00
8402;DHT22;4238;48.404;9.498;2023-09-07T19:42:14;18.00;1.00
8402;DHT22;4238;48.404;9.498;2023-09-07T19:44:42;17.90;1.00
8402;DHT22;4238;48.404;9.498;2023-09-07T19:47:09;17.80;1.00
8402;DHT22;4238;48.404;9.498;2023-09-07T19:49:36;17.70;1.00
8402;DHT22;4238;48.404;9.498;2023-09-07T19:52:03;17.50;1.00
8402;DHT22;4238;48.404;9.498;2023-09-07T19:54:34;17.40;2.70
8402;DHT22;4238;48.404;9.498;2023-09-07T19:57:01;17.40;8.00
8402;DHT22;4238;48.404;9.498;2023-09-07T19:59:28;17.40;8.90
8402;DHT22;4238;48.404;9.498;2023-09-07T20:01:56;17.30;8.80
8402;DHT22;4238;48.404;9.498;2023-09-07T20:04:23;17.20;9.90
8402;DHT22;4238;48.404;9.498;2023-09-07T20:06:51;17.10;13.00
8402;DHT22;4238;48.404;9.498;2023-09-07T20:09:20;17.10;16.60